LEVX/VGO METAR and TAF weather

Enter ICAO airport designator
Station Type Date Time Source
LEVX METAR 2018/12/15 20:00 UTC NOAA

LEVX 152000Z 26006KT 230V300 1200 R19/P2000 R01/P2000 -RA BR OVC002 13/13 Q1019 TEMPO 4000


Station Type Date Time Source
LEVX Decoded METAR 2018/12/15 20:00 UTC NOAA

Vigo / Peinador, Spain (LEVX) 42-13N 008-38W 255M
Dec 15, 2018 - 03:00 PM EST / 2018.12.15 2000 UTC
Wind: from the W (260 degrees) at 7 MPH (6 KT) (direction variable):0
Visibility: less than 1 mile:0
Sky conditions: overcast
Weather: light rain; mist
Temperature: 55 F (13 C)
Dew Point: 55 F (13 C)
Relative Humidity: 100%
Pressure (altimeter): 30.09 in. Hg (1019 hPa)
ob: LEVX 152000Z 26006KT 230V300 1200 R19/P2000 R01/P2000 -RA BR OVC002 13/13 Q1019 TEMPO 4000
cycle: 20

Station Type Date Time Source
LEVX TAF 2018/12/15 18:27 UTC NOAA

TAF LEVX 151700Z 1518/1618 19009KT 6000 -RA SCT005 BKN015 TX14/1518Z TN07/1606Z PROB40
TEMPO 1518/1520 20015G25KT
TEMPO 1518/1519 3000 RA BKN005 PROB30
TEMPO 1518/1608 0800 BCFG VV001
TEMPO 1518/1609 27010KT 3000 BR BKN005 PROB30
TEMPO 1522/1608 0350 BCFG VV001
TEMPO 1608/1615 3000 RA SHRA SCT030TCU


Example: see airport list